sensor_id;sensor_type;location;lat;lon;timestamp;temperature;humidity
33105;DHT22;19476;51.448;6.674;2023-02-01T00:02:16;11.40;55.00
33105;DHT22;19476;51.448;6.674;2023-02-01T00:04:41;11.40;54.80
33105;DHT22;19476;51.448;6.674;2023-02-01T00:07:07;11.40;54.70
33105;DHT22;19476;51.448;6.674;2023-02-01T00:09:33;11.40;54.70
33105;DHT22;19476;51.448;6.674;2023-02-01T00:11:59;11.40;54.60
33105;DHT22;19476;51.448;6.674;2023-02-01T00:14:27;11.40;54.50
33105;DHT22;19476;51.448;6.674;2023-02-01T00:16:53;11.40;54.40
33105;DHT22;19476;51.448;6.674;2023-02-01T00:19:19;11.40;54.20
33105;DHT22;19476;51.448;6.674;2023-02-01T00:21:44;11.40;53.80
33105;DHT22;19476;51.448;6.674;2023-02-01T00:24:11;11.50;54.10
33105;DHT22;19476;51.448;6.674;2023-02-01T00:26:39;11.50;53.90
33105;DHT22;19476;51.448;6.674;2023-02-01T00:29:09;11.50;53.80
33105;DHT22;19476;51.448;6.674;2023-02-01T00:31:35;11.40;53.70
33105;DHT22;19476;51.448;6.674;2023-02-01T00:34:01;11.50;53.50
33105;DHT22;19476;51.448;6.674;2023-02-01T00:36:27;11.50;53.70
33105;DHT22;19476;51.448;6.674;2023-02-01T00:38:53;11.50;53.60
33105;DHT22;19476;51.448;6.674;2023-02-01T00:41:20;11.50;53.70
33105;DHT22;19476;51.448;6.674;2023-02-01T00:43:48;11.50;53.90
33105;DHT22;19476;51.448;6.674;2023-02-01T00:46:16;11.50;54.00
33105;DHT22;19476;51.448;6.674;2023-02-01T00:48:42;11.50;54.00
33105;DHT22;19476;51.448;6.674;2023-02-01T00:54:14;11.60;54.20
33105;DHT22;19476;51.448;6.674;2023-02-01T00:56:40;11.60;54.30
33105;DHT22;19476;51.448;6.674;2023-02-01T00:59:07;11.60;54.30
33105;DHT22;19476;51.448;6.674;2023-02-01T01:01:33;11.60;54.40
33105;DHT22;19476;51.448;6.674;2023-02-01T01:03:59;11.60;54.40
33105;DHT22;19476;51.448;6.674;2023-02-01T01:06:30;11.70;54.40
33105;DHT22;19476;51.448;6.674;2023-02-01T01:08:57;11.70;54.50
33105;DHT22;19476;51.448;6.674;2023-02-01T01:11:26;11.60;54.60
33105;DHT22;19476;51.448;6.674;2023-02-01T01:13:53;11.70;54.70
33105;DHT22;19476;51.448;6.674;2023-02-01T01:16:21;11.70;54.60
33105;DHT22;19476;51.448;6.674;2023-02-01T01:18:47;11.70;54.60
33105;DHT22;19476;51.448;6.674;2023-02-01T01:21:15;11.70;54.60
33105;DHT22;19476;51.448;6.674;2023-02-01T01:23:41;11.70;54.60
33105;DHT22;19476;51.448;6.674;2023-02-01T01:26:09;11.70;54.60
33105;DHT22;19476;51.448;6.674;2023-02-01T01:28:35;11.70;54.50
33105;DHT22;19476;51.448;6.674;2023-02-01T01:31:01;11.70;54.40
33105;DHT22;19476;51.448;6.674;2023-02-01T01:33:27;11.70;54.30
33105;DHT22;19476;51.448;6.674;2023-02-01T01:35:52;11.70;54.20
33105;DHT22;19476;51.448;6.674;2023-02-01T01:38:18;11.70;54.20
33105;DHT22;19476;51.448;6.674;2023-02-01T01:40:47;11.70;54.20
33105;DHT22;19476;51.448;6.674;2023-02-01T01:43:17;11.70;53.90
33105;DHT22;19476;51.448;6.674;2023-02-01T01:45:43;11.70;53.80
33105;DHT22;19476;51.448;6.674;2023-02-01T01:50:50;11.60;53.50
33105;DHT22;19476;51.448;6.674;2023-02-01T01:53:22;11.60;53.50
33105;DHT22;19476;51.448;6.674;2023-02-01T01:55:50;11.60;53.40
33105;DHT22;19476;51.448;6.674;2023-02-01T01:58:19;11.60;53.50
33105;DHT22;19476;51.448;6.674;2023-02-01T02:00:46;11.50;53.20
33105;DHT22;19476;51.448;6.674;2023-02-01T02:03:19;11.50;53.20
33105;DHT22;19476;51.448;6.674;2023-02-01T02:05:48;11.50;53.00
33105;DHT22;19476;51.448;6.674;2023-02-01T02:08:15;11.40;53.10
33105;DHT22;19476;51.448;6.674;2023-02-01T02:10:40;11.40;53.10
33105;DHT22;19476;51.448;6.674;2023-02-01T02:13:32;11.40;53.00
33105;DHT22;19476;51.448;6.674;2023-02-01T02:18:41;11.30;52.90
33105;DHT22;19476;51.448;6.674;2023-02-01T02:21:34;11.20;52.90
33105;DHT22;19476;51.448;6.674;2023-02-01T02:30:44;11.10;52.50
33105;DHT22;19476;51.448;6.674;2023-02-01T02:41:38;10.90;53.00
33105;DHT22;19476;51.448;6.674;2023-02-01T02:44:43;10.90;52.80
33105;DHT22;19476;51.448;6.674;2023-02-01T02:50:36;10.90;52.80
33105;DHT22;19476;51.448;6.674;2023-02-01T02:54:15;10.90;52.60
33105;DHT22;19476;51.448;6.674;2023-02-01T02:56:50;10.80;52.60
33105;DHT22;19476;51.448;6.674;2023-02-01T02:59:37;10.80;52.50
33105;DHT22;19476;51.448;6.674;2023-02-01T03:02:25;10.80;52.70
33105;DHT22;19476;51.448;6.674;2023-02-01T03:05:10;10.70;52.70
33105;DHT22;19476;51.448;6.674;2023-02-01T03:08:03;10.60;52.80
33105;DHT22;19476;51.448;6.674;2023-02-01T03:21:24;10.50;53.10
33105;DHT22;19476;51.448;6.674;2023-02-01T03:23:53;10.50;53.40
33105;DHT22;19476;51.448;6.674;2023-02-01T03:26:22;10.40;53.50
33105;DHT22;19476;51.448;6.674;2023-02-01T03:28:57;10.50;53.70
33105;DHT22;19476;51.448;6.674;2023-02-01T03:31:27;10.40;53.80
33105;DHT22;19476;51.448;6.674;2023-02-01T03:33:53;10.40;53.90
33105;DHT22;19476;51.448;6.674;2023-02-01T03:36:36;10.40;54.00
33105;DHT22;19476;51.448;6.674;2023-02-01T03:39:14;10.40;54.20
33105;DHT22;19476;51.448;6.674;2023-02-01T03:41:53;10.40;54.30
33105;DHT22;19476;51.448;6.674;2023-02-01T03:49:30;10.40;54.50
33105;DHT22;19476;51.448;6.674;2023-02-01T03:51:58;10.40;54.60
33105;DHT22;19476;51.448;6.674;2023-02-01T03:54:27;10.40;55.10
33105;DHT22;19476;51.448;6.674;2023-02-01T03:56:55;10.40;54.60
33105;DHT22;19476;51.448;6.674;2023-02-01T03:59:22;10.40;54.60
33105;DHT22;19476;51.448;6.674;2023-02-01T04:01:47;10.50;54.60
33105;DHT22;19476;51.448;6.674;2023-02-01T04:04:13;10.50;54.50
33105;DHT22;19476;51.448;6.674;2023-02-01T04:06:51;10.50;54.60
33105;DHT22;19476;51.448;6.674;2023-02-01T04:09:17;10.50;54.60
33105;DHT22;19476;51.448;6.674;2023-02-01T04:11:43;10.50;54.60
33105;DHT22;19476;51.448;6.674;2023-02-01T04:14:09;10.50;54.60
33105;DHT22;19476;51.448;6.674;2023-02-01T04:16:35;10.50;54.60
33105;DHT22;19476;51.448;6.674;2023-02-01T04:19:01;10.40;54.70
33105;DHT22;19476;51.448;6.674;2023-02-01T04:21:27;10.40;54.70
33105;DHT22;19476;51.448;6.674;2023-02-01T04:23:54;10.40;54.90
33105;DHT22;19476;51.448;6.674;2023-02-01T04:26:20;10.40;54.80
33105;DHT22;19476;51.448;6.674;2023-02-01T04:28:47;10.40;55.00
33105;DHT22;19476;51.448;6.674;2023-02-01T04:31:16;10.40;55.00
33105;DHT22;19476;51.448;6.674;2023-02-01T04:33:42;10.40;55.10
33105;DHT22;19476;51.448;6.674;2023-02-01T04:36:08;10.40;55.10
33105;DHT22;19476;51.448;6.674;2023-02-01T04:38:34;10.40;55.00
33105;DHT22;19476;51.448;6.674;2023-02-01T04:40:59;10.40;55.10
33105;DHT22;19476;51.448;6.674;2023-02-01T04:43:25;10.40;55.00
33105;DHT22;19476;51.448;6.674;2023-02-01T04:45:52;10.40;55.10
33105;DHT22;19476;51.448;6.674;2023-02-01T04:48:18;10.40;55.10
33105;DHT22;19476;51.448;6.674;2023-02-01T04:50:45;10.40;55.20
33105;DHT22;19476;51.448;6.674;2023-02-01T04:53:14;10.40;55.20
33105;DHT22;19476;51.448;6.674;2023-02-01T04:55:40;10.40;55.20
33105;DHT22;19476;51.448;6.674;2023-02-01T04:58:06;10.40;55.20
33105;DHT22;19476;51.448;6.674;2023-02-01T05:00:32;10.40;55.20
33105;DHT22;19476;51.448;6.674;2023-02-01T05:02:57;10.40;55.20
33105;DHT22;19476;51.448;6.674;2023-02-01T05:05:23;10.40;55.20
33105;DHT22;19476;51.448;6.674;2023-02-01T05:07:49;10.40;55.20
33105;DHT22;19476;51.448;6.674;2023-02-01T05:10:15;10.40;55.30
33105;DHT22;19476;51.448;6.674;2023-02-01T05:12:46;10.40;55.40
33105;DHT22;19476;51.448;6.674;2023-02-01T05:15:30;10.40;55.40
33105;DHT22;19476;51.448;6.674;2023-02-01T05:17:57;10.40;55.40
33105;DHT22;19476;51.448;6.674;2023-02-01T05:20:23;10.30;55.40
33105;DHT22;19476;51.448;6.674;2023-02-01T05:22:49;10.30;55.50
33105;DHT22;19476;51.448;6.674;2023-02-01T05:25:15;10.30;55.40
33105;DHT22;19476;51.448;6.674;2023-02-01T05:27:40;10.30;55.50
33105;DHT22;19476;51.448;6.674;2023-02-01T05:30:07;10.30;55.50
33105;DHT22;19476;51.448;6.674;2023-02-01T05:32:33;10.30;55.60
33105;DHT22;19476;51.448;6.674;2023-02-01T05:34:59;10.20;55.60
33105;DHT22;19476;51.448;6.674;2023-02-01T05:37:25;10.30;55.60
33105;DHT22;19476;51.448;6.674;2023-02-01T05:39:51;10.20;55.60
33105;DHT22;19476;51.448;6.674;2023-02-01T05:42:17;10.20;55.60
33105;DHT22;19476;51.448;6.674;2023-02-01T05:44:43;10.20;55.60
33105;DHT22;19476;51.448;6.674;2023-02-01T05:47:09;10.20;55.70
33105;DHT22;19476;51.448;6.674;2023-02-01T05:49:34;10.20;55.80
33105;DHT22;19476;51.448;6.674;2023-02-01T05:52:01;10.20;55.80
33105;DHT22;19476;51.448;6.674;2023-02-01T05:54:27;10.20;55.90
33105;DHT22;19476;51.448;6.674;2023-02-01T05:56:52;10.20;55.90
33105;DHT22;19476;51.448;6.674;2023-02-01T05:59:18;10.20;55.90
33105;DHT22;19476;51.448;6.674;2023-02-01T06:01:44;10.10;56.00
33105;DHT22;19476;51.448;6.674;2023-02-01T06:04:09;10.20;56.20
33105;DHT22;19476;51.448;6.674;2023-02-01T06:06:35;10.10;56.20
33105;DHT22;19476;51.448;6.674;2023-02-01T06:09:03;10.10;56.30
33105;DHT22;19476;51.448;6.674;2023-02-01T06:11:29;10.10;56.40
33105;DHT22;19476;51.448;6.674;2023-02-01T06:13:55;10.10;56.50
33105;DHT22;19476;51.448;6.674;2023-02-01T06:16:21;10.10;56.50
33105;DHT22;19476;51.448;6.674;2023-02-01T06:18:48;10.10;56.50
33105;DHT22;19476;51.448;6.674;2023-02-01T06:21:14;10.10;56.60
33105;DHT22;19476;51.448;6.674;2023-02-01T06:23:52;10.10;56.60
33105;DHT22;19476;51.448;6.674;2023-02-01T06:26:18;10.20;56.60
33105;DHT22;19476;51.448;6.674;2023-02-01T06:28:44;10.20;56.60
33105;DHT22;19476;51.448;6.674;2023-02-01T06:31:10;10.20;56.50
33105;DHT22;19476;51.448;6.674;2023-02-01T06:33:37;10.20;56.50
33105;DHT22;19476;51.448;6.674;2023-02-01T06:36:05;10.30;56.50
33105;DHT22;19476;51.448;6.674;2023-02-01T06:38:32;10.20;56.50
33105;DHT22;19476;51.448;6.674;2023-02-01T06:41:00;10.30;56.50
33105;DHT22;19476;51.448;6.674;2023-02-01T06:43:27;10.30;56.50
33105;DHT22;19476;51.448;6.674;2023-02-01T06:45:52;10.40;56.30
33105;DHT22;19476;51.448;6.674;2023-02-01T06:48:18;10.40;56.20
33105;DHT22;19476;51.448;6.674;2023-02-01T06:50:44;10.40;56.10
33105;DHT22;19476;51.448;6.674;2023-02-01T06:53:10;10.50;56.00
33105;DHT22;19476;51.448;6.674;2023-02-01T06:55:36;10.50;55.90
33105;DHT22;19476;51.448;6.674;2023-02-01T06:58:02;10.50;55.90
33105;DHT22;19476;51.448;6.674;2023-02-01T07:00:28;10.50;55.80
33105;DHT22;19476;51.448;6.674;2023-02-01T07:02:57;10.50;55.80
33105;DHT22;19476;51.448;6.674;2023-02-01T07:05:22;10.60;55.80
33105;DHT22;19476;51.448;6.674;2023-02-01T07:07:48;10.60;55.80
33105;DHT22;19476;51.448;6.674;2023-02-01T07:10:14;10.60;55.70
33105;DHT22;19476;51.448;6.674;2023-02-01T07:12:40;10.60;55.70
33105;DHT22;19476;51.448;6.674;2023-02-01T07:15:06;10.60;55.70
33105;DHT22;19476;51.448;6.674;2023-02-01T07:17:32;10.60;55.70
33105;DHT22;19476;51.448;6.674;2023-02-01T07:19:58;10.60;55.70
33105;DHT22;19476;51.448;6.674;2023-02-01T07:22:27;10.60;55.80
33105;DHT22;19476;51.448;6.674;2023-02-01T07:24:53;10.60;55.70
33105;DHT22;19476;51.448;6.674;2023-02-01T07:27:19;10.60;55.80
33105;DHT22;19476;51.448;6.674;2023-02-01T07:29:45;10.60;56.00
33105;DHT22;19476;51.448;6.674;2023-02-01T07:32:11;10.90;56.20
33105;DHT22;19476;51.448;6.674;2023-02-01T07:34:37;10.60;56.10
33105;DHT22;19476;51.448;6.674;2023-02-01T07:37:02;10.50;56.10
33105;DHT22;19476;51.448;6.674;2023-02-01T07:39:28;10.60;56.20
33105;DHT22;19476;51.448;6.674;2023-02-01T07:41:57;10.50;56.20
33105;DHT22;19476;51.448;6.674;2023-02-01T07:44:23;10.50;56.20
33105;DHT22;19476;51.448;6.674;2023-02-01T07:46:49;10.50;56.30
33105;DHT22;19476;51.448;6.674;2023-02-01T07:49:15;10.50;56.40
33105;DHT22;19476;51.448;6.674;2023-02-01T07:51:43;10.50;56.40
33105;DHT22;19476;51.448;6.674;2023-02-01T07:54:08;10.50;56.40
33105;DHT22;19476;51.448;6.674;2023-02-01T07:56:34;10.50;56.50
33105;DHT22;19476;51.448;6.674;2023-02-01T07:59:00;10.40;56.50
33105;DHT22;19476;51.448;6.674;2023-02-01T08:01:28;10.50;56.50
33105;DHT22;19476;51.448;6.674;2023-02-01T08:03:58;10.50;56.60
33105;DHT22;19476;51.448;6.674;2023-02-01T08:06:25;10.50;56.60
33105;DHT22;19476;51.448;6.674;2023-02-01T08:08:52;10.50;56.60
33105;DHT22;19476;51.448;6.674;2023-02-01T08:11:20;10.50;56.60
33105;DHT22;19476;51.448;6.674;2023-02-01T08:13:46;10.50;56.60
33105;DHT22;19476;51.448;6.674;2023-02-01T08:16:13;10.50;56.60
33105;DHT22;19476;51.448;6.674;2023-02-01T08:18:40;10.40;56.70
33105;DHT22;19476;51.448;6.674;2023-02-01T08:21:12;10.50;56.80
33105;DHT22;19476;51.448;6.674;2023-02-01T08:23:39;10.50;56.90
33105;DHT22;19476;51.448;6.674;2023-02-01T08:28:31;10.50;56.80
33105;DHT22;19476;51.448;6.674;2023-02-01T08:30:57;10.50;56.80
33105;DHT22;19476;51.448;6.674;2023-02-01T08:33:22;10.50;56.80
33105;DHT22;19476;51.448;6.674;2023-02-01T08:35:48;10.50;57.30
33105;DHT22;19476;51.448;6.674;2023-02-01T08:38:14;10.60;56.80
33105;DHT22;19476;51.448;6.674;2023-02-01T08:40:40;10.60;56.80
33105;DHT22;19476;51.448;6.674;2023-02-01T08:43:07;10.60;56.70
33105;DHT22;19476;51.448;6.674;2023-02-01T08:45:33;10.60;56.60
33105;DHT22;19476;51.448;6.674;2023-02-01T08:47:59;10.60;56.60
33105;DHT22;19476;51.448;6.674;2023-02-01T08:50:25;10.60;56.50
33105;DHT22;19476;51.448;6.674;2023-02-01T08:52:52;10.60;56.50
33105;DHT22;19476;51.448;6.674;2023-02-01T08:55:19;10.60;56.70
33105;DHT22;19476;51.448;6.674;2023-02-01T08:57:45;10.60;56.70
33105;DHT22;19476;51.448;6.674;2023-02-01T09:00:13;10.60;56.60
33105;DHT22;19476;51.448;6.674;2023-02-01T09:02:41;10.60;56.60
33105;DHT22;19476;51.448;6.674;2023-02-01T09:05:07;10.60;56.50
33105;DHT22;19476;51.448;6.674;2023-02-01T09:07:33;10.60;56.40
33105;DHT22;19476;51.448;6.674;2023-02-01T09:10:00;10.70;56.50
33105;DHT22;19476;51.448;6.674;2023-02-01T09:12:32;10.70;56.50
33105;DHT22;19476;51.448;6.674;2023-02-01T09:14:59;10.70;56.40
33105;DHT22;19476;51.448;6.674;2023-02-01T09:17:29;10.70;56.30
33105;DHT22;19476;51.448;6.674;2023-02-01T09:19:55;10.60;56.30
33105;DHT22;19476;51.448;6.674;2023-02-01T09:22:21;10.60;56.40
33105;DHT22;19476;51.448;6.674;2023-02-01T09:24:47;10.60;56.40
33105;DHT22;19476;51.448;6.674;2023-02-01T09:27:13;10.60;56.40
33105;DHT22;19476;51.448;6.674;2023-02-01T09:29:39;10.60;56.50
33105;DHT22;19476;51.448;6.674;2023-02-01T09:32:05;10.60;56.60
33105;DHT22;19476;51.448;6.674;2023-02-01T09:34:33;10.60;56.80
33105;DHT22;19476;51.448;6.674;2023-02-01T09:36:58;10.60;56.90
33105;DHT22;19476;51.448;6.674;2023-02-01T09:39:24;10.60;56.80
33105;DHT22;19476;51.448;6.674;2023-02-01T09:47:49;10.60;56.90
33105;DHT22;19476;51.448;6.674;2023-02-01T09:50:21;10.60;56.70
33105;DHT22;19476;51.448;6.674;2023-02-01T09:52:55;10.70;56.80
33105;DHT22;19476;51.448;6.674;2023-02-01T09:55:40;10.70;56.80
33105;DHT22;19476;51.448;6.674;2023-02-01T09:58:16;10.70;56.70
33105;DHT22;19476;51.448;6.674;2023-02-01T10:00:54;10.70;56.60
33105;DHT22;19476;51.448;6.674;2023-02-01T10:03:21;10.70;56.80
33105;DHT22;19476;51.448;6.674;2023-02-01T10:06:11;10.80;56.70
33105;DHT22;19476;51.448;6.674;2023-02-01T10:12:00;10.80;56.80
33105;DHT22;19476;51.448;6.674;2023-02-01T10:22:53;10.90;56.60
33105;DHT22;19476;51.448;6.674;2023-02-01T10:25:37;11.00;56.50
33105;DHT22;19476;51.448;6.674;2023-02-01T10:28:13;11.00;56.40
33105;DHT22;19476;51.448;6.674;2023-02-01T10:30:44;11.00;56.30
33105;DHT22;19476;51.448;6.674;2023-02-01T10:33:27;11.00;56.20
33105;DHT22;19476;51.448;6.674;2023-02-01T10:38:43;11.10;56.10
33105;DHT22;19476;51.448;6.674;2023-02-01T10:41:16;11.10;56.00
33105;DHT22;19476;51.448;6.674;2023-02-01T10:43:43;11.10;55.80
33105;DHT22;19476;51.448;6.674;2023-02-01T10:46:10;11.10;55.90
33105;DHT22;19476;51.448;6.674;2023-02-01T10:48:37;11.10;55.80
33105;DHT22;19476;51.448;6.674;2023-02-01T10:51:12;11.10;55.80
33105;DHT22;19476;51.448;6.674;2023-02-01T10:53:44;11.10;55.90
33105;DHT22;19476;51.448;6.674;2023-02-01T10:56:12;11.10;55.80
33105;DHT22;19476;51.448;6.674;2023-02-01T10:58:46;11.10;55.70
33105;DHT22;19476;51.448;6.674;2023-02-01T11:01:39;11.10;55.50
33105;DHT22;19476;51.448;6.674;2023-02-01T11:04:09;11.10;55.60
33105;DHT22;19476;51.448;6.674;2023-02-01T11:06:41;11.20;55.80
33105;DHT22;19476;51.448;6.674;2023-02-01T11:11:53;11.30;55.80
33105;DHT22;19476;51.448;6.674;2023-02-01T11:17:24;11.40;55.30
33105;DHT22;19476;51.448;6.674;2023-02-01T11:20:21;11.40;55.10
33105;DHT22;19476;51.448;6.674;2023-02-01T11:22:55;11.40;54.80
33105;DHT22;19476;51.448;6.674;2023-02-01T11:25:22;11.40;54.90
33105;DHT22;19476;51.448;6.674;2023-02-01T11:27:50;11.40;55.00
33105;DHT22;19476;51.448;6.674;2023-02-01T11:30:19;11.40;54.90
33105;DHT22;19476;51.448;6.674;2023-02-01T11:32:48;11.40;54.70
33105;DHT22;19476;51.448;6.674;2023-02-01T11:35:19;11.50;54.90
33105;DHT22;19476;51.448;6.674;2023-02-01T11:37:48;11.40;55.00
33105;DHT22;19476;51.448;6.674;2023-02-01T11:43:00;11.50;55.30
33105;DHT22;19476;51.448;6.674;2023-02-01T11:45:29;11.50;55.50
33105;DHT22;19476;51.448;6.674;2023-02-01T11:47:57;11.50;55.60
33105;DHT22;19476;51.448;6.674;2023-02-01T12:10:01;11.60;56.40
33105;DHT22;19476;51.448;6.674;2023-02-01T12:15:28;11.60;55.70
33105;DHT22;19476;51.448;6.674;2023-02-01T12:40:31;11.60;53.60
33105;DHT22;19476;51.448;6.674;2023-02-01T12:43:01;11.60;54.20
33105;DHT22;19476;51.448;6.674;2023-02-01T12:45:55;11.60;53.20
33105;DHT22;19476;51.448;6.674;2023-02-01T12:48:32;11.60;53.10
33105;DHT22;19476;51.448;6.674;2023-02-01T12:51:07;11.60;53.50
33105;DHT22;19476;51.448;6.674;2023-02-01T12:56:24;11.70;53.40
33105;DHT22;19476;51.448;6.674;2023-02-01T12:58:58;11.70;53.60
33105;DHT22;19476;51.448;6.674;2023-02-01T13:01:35;11.70;53.30
33105;DHT22;19476;51.448;6.674;2023-02-01T13:04:24;11.70;53.30
33105;DHT22;19476;51.448;6.674;2023-02-01T13:07:05;11.70;53.40
33105;DHT22;19476;51.448;6.674;2023-02-01T13:10:27;11.80;53.50
33105;DHT22;19476;51.448;6.674;2023-02-01T13:13:39;11.80;53.70
33105;DHT22;19476;51.448;6.674;2023-02-01T13:15:42;11.80;53.70
33105;DHT22;19476;51.448;6.674;2023-02-01T13:18:15;11.80;53.80
33105;DHT22;19476;51.448;6.674;2023-02-01T13:23:40;11.80;54.00
33105;DHT22;19476;51.448;6.674;2023-02-01T13:26:06;11.80;53.90
33105;DHT22;19476;51.448;6.674;2023-02-01T13:28:42;11.80;53.90
33105;DHT22;19476;51.448;6.674;2023-02-01T13:42:01;11.80;53.50
33105;DHT22;19476;51.448;6.674;2023-02-01T13:47:31;11.80;53.50
33105;DHT22;19476;51.448;6.674;2023-02-01T13:50:02;11.80;53.40
33105;DHT22;19476;51.448;6.674;2023-02-01T13:52:40;11.90;53.50
33105;DHT22;19476;51.448;6.674;2023-02-01T13:58:33;11.90;53.50
33105;DHT22;19476;51.448;6.674;2023-02-01T14:00:41;11.90;53.40
33105;DHT22;19476;51.448;6.674;2023-02-01T14:03:21;12.00;53.20
33105;DHT22;19476;51.448;6.674;2023-02-01T14:08:37;12.00;53.20
33105;DHT22;19476;51.448;6.674;2023-02-01T14:11:03;12.00;53.20
33105;DHT22;19476;51.448;6.674;2023-02-01T14:13:35;12.00;53.20
33105;DHT22;19476;51.448;6.674;2023-02-01T14:26:51;12.20;53.10
33105;DHT22;19476;51.448;6.674;2023-02-01T15:01:23;12.30;52.40
33105;DHT22;19476;51.448;6.674;2023-02-01T15:06:25;12.40;52.50
33105;DHT22;19476;51.448;6.674;2023-02-01T15:08:55;12.40;52.50
33105;DHT22;19476;51.448;6.674;2023-02-01T15:11:22;12.40;52.50
33105;DHT22;19476;51.448;6.674;2023-02-01T15:13:52;12.40;52.40
33105;DHT22;19476;51.448;6.674;2023-02-01T15:16:21;12.40;52.50
33105;DHT22;19476;51.448;6.674;2023-02-01T15:18:48;12.40;52.50
33105;DHT22;19476;51.448;6.674;2023-02-01T15:21:18;12.50;52.50
33105;DHT22;19476;51.448;6.674;2023-02-01T15:23:45;12.50;52.30
33105;DHT22;19476;51.448;6.674;2023-02-01T15:26:28;12.50;52.30
33105;DHT22;19476;51.448;6.674;2023-02-01T15:28:53;12.50;52.10
33105;DHT22;19476;51.448;6.674;2023-02-01T15:31:41;12.50;52.20
33105;DHT22;19476;51.448;6.674;2023-02-01T15:34:08;12.60;52.00
33105;DHT22;19476;51.448;6.674;2023-02-01T15:36:34;12.50;52.00
33105;DHT22;19476;51.448;6.674;2023-02-01T15:39:20;12.50;51.90
33105;DHT22;19476;51.448;6.674;2023-02-01T15:41:51;12.50;51.90
33105;DHT22;19476;51.448;6.674;2023-02-01T15:44:43;12.50;52.00
33105;DHT22;19476;51.448;6.674;2023-02-01T15:47:24;12.50;52.20
33105;DHT22;19476;51.448;6.674;2023-02-01T15:49:52;12.50;52.20
33105;DHT22;19476;51.448;6.674;2023-02-01T15:55:04;12.50;52.20
33105;DHT22;19476;51.448;6.674;2023-02-01T15:57:35;12.50;52.20
33105;DHT22;19476;51.448;6.674;2023-02-01T16:03:00;12.40;52.50
33105;DHT22;19476;51.448;6.674;2023-02-01T16:05:36;12.40;52.50
33105;DHT22;19476;51.448;6.674;2023-02-01T16:08:14;12.40;52.50
33105;DHT22;19476;51.448;6.674;2023-02-01T16:10:48;12.40;52.50
33105;DHT22;19476;51.448;6.674;2023-02-01T16:13:15;12.40;52.60
33105;DHT22;19476;51.448;6.674;2023-02-01T16:15:41;12.40;52.80
33105;DHT22;19476;51.448;6.674;2023-02-01T16:18:08;12.40;53.10
33105;DHT22;19476;51.448;6.674;2023-02-01T16:20:36;12.40;53.40
33105;DHT22;19476;51.448;6.674;2023-02-01T16:23:03;12.40;53.50
33105;DHT22;19476;51.448;6.674;2023-02-01T16:25:30;12.40;53.40
33105;DHT22;19476;51.448;6.674;2023-02-01T16:27:55;12.40;53.40
33105;DHT22;19476;51.448;6.674;2023-02-01T16:30:21;12.40;53.30
33105;DHT22;19476;51.448;6.674;2023-02-01T16:32:55;12.40;53.30
33105;DHT22;19476;51.448;6.674;2023-02-01T16:37:57;12.40;53.10
33105;DHT22;19476;51.448;6.674;2023-02-01T16:40:24;12.40;53.70
33105;DHT22;19476;51.448;6.674;2023-02-01T16:42:53;12.40;53.10
33105;DHT22;19476;51.448;6.674;2023-02-01T16:45:19;12.30;53.10
33105;DHT22;19476;51.448;6.674;2023-02-01T16:47:48;12.30;53.10
33105;DHT22;19476;51.448;6.674;2023-02-01T16:50:18;12.30;53.20
33105;DHT22;19476;51.448;6.674;2023-02-01T16:52:46;12.30;53.20
33105;DHT22;19476;51.448;6.674;2023-02-01T16:55:17;12.30;53.10
33105;DHT22;19476;51.448;6.674;2023-02-01T16:57:43;12.30;53.20
33105;DHT22;19476;51.448;6.674;2023-02-01T17:00:10;12.30;53.20
33105;DHT22;19476;51.448;6.674;2023-02-01T17:02:37;12.30;53.20
33105;DHT22;19476;51.448;6.674;2023-02-01T17:05:04;12.20;53.70
33105;DHT22;19476;51.448;6.674;2023-02-01T17:07:31;12.20;53.30
33105;DHT22;19476;51.448;6.674;2023-02-01T17:09:57;12.20;53.30
33105;DHT22;19476;51.448;6.674;2023-02-01T17:12:30;12.20;53.30
33105;DHT22;19476;51.448;6.674;2023-02-01T17:14:58;12.20;53.50
33105;DHT22;19476;51.448;6.674;2023-02-01T17:17:36;12.20;53.50
33105;DHT22;19476;51.448;6.674;2023-02-01T17:20:03;12.20;53.50
33105;DHT22;19476;51.448;6.674;2023-02-01T17:22:30;12.20;53.50
33105;DHT22;19476;51.448;6.674;2023-02-01T17:24:55;12.20;53.50
33105;DHT22;19476;51.448;6.674;2023-02-01T17:27:21;12.20;53.50
33105;DHT22;19476;51.448;6.674;2023-02-01T17:29:47;12.20;53.60
33105;DHT22;19476;51.448;6.674;2023-02-01T17:32:22;12.20;53.70
33105;DHT22;19476;51.448;6.674;2023-02-01T17:34:49;12.20;53.80
33105;DHT22;19476;51.448;6.674;2023-02-01T17:37:23;12.20;53.80
33105;DHT22;19476;51.448;6.674;2023-02-01T17:39:50;12.20;53.90
33105;DHT22;19476;51.448;6.674;2023-02-01T17:42:25;12.20;54.00
33105;DHT22;19476;51.448;6.674;2023-02-01T17:45:10;12.20;54.20
33105;DHT22;19476;51.448;6.674;2023-02-01T17:47:38;12.20;54.30
33105;DHT22;19476;51.448;6.674;2023-02-01T17:50:04;12.20;54.30
33105;DHT22;19476;51.448;6.674;2023-02-01T17:52:30;12.20;54.40
33105;DHT22;19476;51.448;6.674;2023-02-01T17:54:56;12.20;54.40
33105;DHT22;19476;51.448;6.674;2023-02-01T17:57:22;12.20;54.40
33105;DHT22;19476;51.448;6.674;2023-02-01T17:59:48;12.20;54.50
33105;DHT22;19476;51.448;6.674;2023-02-01T18:02:20;12.20;54.60
33105;DHT22;19476;51.448;6.674;2023-02-01T18:04:46;12.20;54.70
33105;DHT22;19476;51.448;6.674;2023-02-01T18:07:13;12.20;54.60
33105;DHT22;19476;51.448;6.674;2023-02-01T18:09:39;12.10;54.60
33105;DHT22;19476;51.448;6.674;2023-02-01T18:12:12;12.10;54.60
33105;DHT22;19476;51.448;6.674;2023-02-01T18:14:39;12.10;54.70
33105;DHT22;19476;51.448;6.674;2023-02-01T18:17:05;12.10;54.70
33105;DHT22;19476;51.448;6.674;2023-02-01T18:19:31;12.10;54.80
33105;DHT22;19476;51.448;6.674;2023-02-01T18:21:57;12.10;54.70
33105;DHT22;19476;51.448;6.674;2023-02-01T18:24:22;12.10;54.70
33105;DHT22;19476;51.448;6.674;2023-02-01T18:26:49;12.10;54.70
33105;DHT22;19476;51.448;6.674;2023-02-01T18:29:16;12.10;54.60
33105;DHT22;19476;51.448;6.674;2023-02-01T18:31:47;12.10;54.60
33105;DHT22;19476;51.448;6.674;2023-02-01T18:34:13;12.10;54.50
33105;DHT22;19476;51.448;6.674;2023-02-01T18:36:45;12.20;54.50
33105;DHT22;19476;51.448;6.674;2023-02-01T18:39:11;12.20;54.50
33105;DHT22;19476;51.448;6.674;2023-02-01T18:41:37;12.20;54.50
33105;DHT22;19476;51.448;6.674;2023-02-01T18:44:03;12.20;54.40
33105;DHT22;19476;51.448;6.674;2023-02-01T18:46:29;12.20;54.40
33105;DHT22;19476;51.448;6.674;2023-02-01T18:48:54;12.20;54.20
33105;DHT22;19476;51.448;6.674;2023-02-01T18:51:20;12.20;54.20
33105;DHT22;19476;51.448;6.674;2023-02-01T18:53:48;12.20;54.20
33105;DHT22;19476;51.448;6.674;2023-02-01T18:56:15;12.20;54.20
33105;DHT22;19476;51.448;6.674;2023-02-01T18:58:42;12.20;54.30
33105;DHT22;19476;51.448;6.674;2023-02-01T19:01:20;12.20;54.20
33105;DHT22;19476;51.448;6.674;2023-02-01T19:03:49;12.20;54.30